Time;durP1;ratioP1;P1;durP2;ratioP2;P2;SDS_P1;SDS_P2;PMS_P1;PMS_P2;Temp;Humidity;BMP_temperature;BMP_pressure;BME280_temperature;BME280_humidity;BME280_pressure;Samples;Min_cycle;Max_cycle;Signal;HPM_P1;HPM_P2
2022/09/05 00:02:08;;;;;;;;;4.25;2.75;;;;;25.90;40.66;101125.94;5044407;28;45288;-41
2022/09/05 00:05:17;;;;;;;;;2.75;2.75;;;;;25.89;40.57;101124.22;5055077;28;46206;-42
2022/09/05 00:07:56;;;;;;;;;4.50;3.00;;;;;25.88;40.19;101127.00;5045340;28;45746;-47
2022/09/05 00:10:47;;;;;;;;;4.50;2.00;;;;;25.87;40.65;101128.81;5040464;28;45393;-42
2022/09/05 00:13:24;;;;;;;;;2.00;2.00;;;;;25.85;40.70;101125.41;5040009;28;45554;-47
2022/09/05 00:15:56;;;;;;;;;3.00;3.00;;;;;25.85;40.75;101127.22;5035472;28;47789;-53
2022/09/05 00:18:41;;;;;;;;;3.00;3.00;;;;;25.85;40.37;101157.28;5037198;28;45302;-51
2022/09/05 00:21:23;;;;;;;;;3.00;3.00;;;;;25.84;40.51;101137.00;5035979;28;45434;-51
2022/09/05 00:24:08;;;;;;;;;2.00;2.00;;;;;25.85;40.77;101144.00;5037704;28;45466;-47
2022/09/05 00:26:53;;;;;;;;;1.75;1.75;;;;;25.85;41.02;101138.69;5038886;28;46127;-45
2022/09/05 00:29:42;;;;;;;;;4.00;3.00;;;;;25.84;40.83;101131.69;5041188;28;45416;-47
2022/09/05 00:32:11;;;;;;;;;2.00;2.00;;;;;25.82;41.03;101130.97;5038642;28;45467;-44
2022/09/05 00:34:57;;;;;;;;;2.00;2.00;;;;;25.81;41.00;101129.25;5036852;28;45581;-44
2022/09/05 00:37:31;;;;;;;;;3.75;2.00;;;;;25.82;41.26;101127.44;5040522;28;45418;-46
2022/09/05 00:40:15;;;;;;;;;3.25;3.25;;;;;25.79;40.77;101123.22;5043029;28;45648;-47
2022/09/05 00:42:42;;;;;;;;;2.00;2.00;;;;;25.78;40.66;101113.56;5046224;28;45262;-48
2022/09/05 00:45:15;;;;;;;;;1.25;1.25;;;;;25.79;40.96;101115.25;5054053;28;44765;-41
2022/09/05 00:47:58;;;;;;;;;2.25;2.25;;;;;25.76;40.76;101124.28;5047691;28;46208;-43
2022/09/05 00:50:33;;;;;;;;;2.00;2.00;;;;;25.75;41.18;101133.22;5038060;28;45271;-42
2022/09/05 00:53:08;;;;;;;;;3.50;3.00;;;;;25.75;41.14;101132.34;5036913;28;45250;-48
2022/09/05 00:55:33;;;;;;;;;0.00;0.00;;;;;25.75;41.05;101135.00;5038426;28;45434;-48
2022/09/05 00:58:28;;;;;;;;;2.00;2.00;;;;;25.76;41.37;101134.91;5038111;28;45463;-45
2022/09/05 01:00:57;;;;;;;;;2.00;2.00;;;;;25.80;41.16;101140.00;5040044;28;45423;-42
2022/09/05 01:03:52;;;;;;;;;3.00;3.00;;;;;25.81;41.00;101133.72;5043067;28;45170;-41
2022/09/05 01:06:29;;;;;;;;;2.00;2.00;;;;;25.82;40.88;101117.69;5046326;28;45334;-48
2022/09/05 01:09:00;;;;;;;;;2.00;1.00;;;;;25.83;40.71;101103.44;5049751;28;46130;-41
2022/09/05 01:11:26;;;;;;;;;4.00;3.00;;;;;25.84;40.66;101094.53;5049356;28;45918;-41
2022/09/05 01:14:26;;;;;;;;;2.75;2.00;;;;;25.85;40.88;101098.03;5053524;28;45417;-44
2022/09/05 01:17:22;;;;;;;;;1.50;1.50;;;;;25.86;40.94;101099.72;5045389;28;45325;-42
2022/09/05 01:20:24;;;;;;;;;3.00;3.00;;;;;25.86;40.72;101105.88;5031237;28;46013;-41
2022/09/05 01:23:17;;;;;;;;;2.00;2.00;;;;;25.86;40.62;101105.03;5016267;28;45789;-41
2022/09/05 01:26:04;;;;;;;;;2.00;2.00;;;;;25.88;40.80;101138.47;5015882;28;45339;-42
2022/09/05 01:28:40;;;;;;;;;2.25;1.00;;;;;25.89;40.99;101182.66;5018823;28;45319;-42
2022/09/05 01:31:25;;;;;;;;;4.00;2.00;;;;;25.90;40.95;101173.72;5025723;28;45209;-42
2022/09/05 01:34:02;;;;;;;;;2.00;2.00;;;;;25.90;41.50;101160.44;5038461;28;45230;-49
2022/09/05 01:36:48;;;;;;;;;4.00;2.50;;;;;25.88;42.00;101159.72;5035998;28;45313;-41
2022/09/05 01:39:42;;;;;;;;;1.75;1.75;;;;;25.83;42.48;101106.13;5039950;28;45362;-40
2022/09/05 01:42:24;;;;;;;;;4.00;2.00;;;;;25.81;42.09;101105.38;5039883;28;46372;-45
2022/09/05 01:44:50;;;;;;;;;2.00;2.00;;;;;25.81;42.52;101110.69;5053594;28;45192;-45
2022/09/05 01:47:18;;;;;;;;;6.00;3.00;;;;;25.80;42.68;101098.38;5056831;28;45291;-41
2022/09/05 01:50:14;;;;;;;;;5.50;2.00;;;;;25.82;42.28;101077.88;5046471;28;45503;-46
2022/09/05 01:53:14;;;;;;;;;2.25;2.25;;;;;25.82;42.91;101075.22;5040460;28;46360;-46
2022/09/05 01:56:23;;;;;;;;;2.00;1.75;;;;;25.82;42.35;101067.25;5047739;28;45276;-44
2022/09/05 01:59:07;;;;;;;;;3.25;1.00;;;;;25.84;42.96;101078.59;4990828;28;45406;-43
2022/09/05 02:01:35;;;;;;;;;3.00;3.00;;;;;25.85;43.32;101109.47;4997975;28;45420;-45
2022/09/05 02:04:40;;;;;;;;;4.00;2.00;;;;;25.82;43.25;101109.72;5011718;28;46461;-45
2022/09/05 02:07:11;;;;;;;;;3.50;2.75;;;;;25.79;42.92;101099.31;5019078;28;45726;-44
2022/09/05 02:09:42;;;;;;;;;1.25;1.25;;;;;25.77;43.62;101095.94;5019134;28;45316;-41
2022/09/05 02:12:13;;;;;;;;;3.50;3.50;;;;;25.72;43.34;101087.47;5028841;28;45256;-42
2022/09/05 02:14:53;;;;;;;;;2.00;2.00;;;;;25.69;43.31;101096.47;5039242;28;46115;-43
2022/09/05 02:17:22;;;;;;;;;4.00;3.00;;;;;25.67;43.67;101097.56;5048812;28;45696;-43
2022/09/05 02:20:20;;;;;;;;;3.25;3.25;;;;;25.66;43.21;101096.72;5049084;28;45271;-45
2022/09/05 02:22:59;;;;;;;;;5.00;4.00;;;;;25.67;43.90;101106.41;5041469;28;45954;-44
2022/09/05 02:25:43;;;;;;;;;3.00;3.00;;;;;25.68;43.53;101099.25;5042399;28;46092;-41
2022/09/05 02:28:19;;;;;;;;;3.00;3.00;;;;;25.67;43.90;101100.22;5055907;28;45691;-42
2022/09/05 02:30:54;;;;;;;;;4.00;4.00;;;;;25.65;43.79;101102.13;5049098;28;45244;-52
2022/09/05 02:33:24;;;;;;;;;2.00;2.00;;;;;25.63;43.64;101096.94;5040833;28;45342;-48
2022/09/05 02:36:07;;;;;;;;;4.50;4.00;;;;;25.61;43.73;101094.41;5038898;28;45679;-44
2022/09/05 02:38:33;;;;;;;;;2.50;2.50;;;;;25.58;44.24;101094.63;5036783;28;46451;-46
2022/09/05 02:41:07;;;;;;;;;2.00;2.00;;;;;25.56;43.73;101095.72;5040495;28;45441;-45
2022/09/05 02:43:47;;;;;;;;;3.00;3.00;;;;;25.55;44.23;101100.16;5043051;28;45347;-42
2022/09/05 02:46:29;;;;;;;;;3.25;3.25;;;;;25.53;44.24;101107.38;5044025;28;45296;-41
2022/09/05 02:49:09;;;;;;;;;3.00;3.00;;;;;25.52;44.02;101102.19;5040688;28;45368;-41
2022/09/05 02:51:53;;;;;;;;;2.25;2.25;;;;;25.54;44.33;101103.78;5048617;28;45490;-44
2022/09/05 02:54:27;;;;;;;;;3.00;3.00;;;;;25.56;44.04;101108.97;5043285;28;45344;-50
2022/09/05 02:57:17;;;;;;;;;3.75;2.25;;;;;25.59;43.93;101129.97;5038319;28;45346;-49
2022/09/05 03:00:10;;;;;;;;;4.00;2.25;;;;;25.62;43.53;101127.97;5037792;28;45914;-53
2022/09/05 03:03:27;;;;;;;;;3.75;3.75;;;;;25.67;43.52;101134.72;5048375;28;44689;-44
2022/09/05 03:05:58;;;;;;;;;2.75;2.75;;;;;25.69;43.87;101127.50;5007113;28;45412;-46
2022/09/05 03:08:36;;;;;;;;;4.00;4.00;;;;;25.71;43.55;101125.59;5040391;28;46048;-40
2022/09/05 03:11:19;;;;;;;;;3.00;3.00;;;;;25.73;43.85;101123.69;5029568;28;45622;-45
2022/09/05 03:14:06;;;;;;;;;2.50;2.25;;;;;25.74;43.57;101136.84;5020634;28;45481;-44
2022/09/05 03:17:20;;;;;;;;;3.00;3.00;;;;;25.77;43.42;101147.22;5020419;28;44750;-45
2022/09/05 03:20:01;;;;;;;;;5.50;3.00;;;;;25.79;43.12;101147.13;5023365;28;46353;-39
2022/09/05 03:23:00;;;;;;;;;4.00;3.25;;;;;25.79;43.56;101147.13;5038705;28;45429;-41
2022/09/05 03:25:56;;;;;;;;;3.00;3.00;;;;;25.80;43.37;101156.78;5038245;28;45173;-41
2022/09/05 03:29:05;;;;;;;;;3.00;3.00;;;;;25.81;43.60;101155.81;5038402;28;45528;-42
2022/09/05 03:31:49;;;;;;;;;6.00;3.00;;;;;25.82;43.67;101152.19;5045466;28;46521;-42
2022/09/05 03:34:28;;;;;;;;;3.75;3.25;;;;;25.83;43.05;101161.00;5036404;28;45358;-42
2022/09/05 03:37:26;;;;;;;;;5.00;2.50;;;;;25.84;43.26;101158.25;5029594;28;45194;-44
2022/09/05 03:40:18;;;;;;;;;4.25;3.25;;;;;25.85;43.17;101153.78;5027075;28;45186;-41
2022/09/05 03:43:05;;;;;;;;;2.50;2.50;;;;;25.84;43.52;101166.22;5032887;28;45357;-42
2022/09/05 03:45:55;;;;;;;;;2.25;2.25;;;;;25.86;43.27;101160.78;5039841;28;45553;-48
2022/09/05 03:48:56;;;;;;;;;3.00;3.00;;;;;25.86;43.45;101158.13;5047133;28;45418;-43
2022/09/05 03:51:40;;;;;;;;;2.25;2.25;;;;;25.87;43.78;101151.88;5039427;28;45251;-42
2022/09/05 03:54:33;;;;;;;;;3.00;3.00;;;;;25.87;43.52;101151.88;5036552;28;45363;-42
2022/09/05 03:57:21;;;;;;;;;2.50;2.50;;;;;25.85;43.82;101144.00;5037106;28;45358;-41
2022/09/05 04:00:20;;;;;;;;;4.50;2.00;;;;;25.87;43.21;101146.56;5036099;28;45520;-41
2022/09/05 04:03:12;;;;;;;;;2.00;2.00;;;;;25.85;43.32;101144.00;5044529;28;45259;-53
2022/09/05 04:05:43;;;;;;;;;2.50;2.50;;;;;25.86;43.15;101150.16;5036586;28;45241;-48
2022/09/05 04:08:27;;;;;;;;;3.00;3.00;;;;;25.88;43.42;101156.22;5038890;28;45676;-45
2022/09/05 04:10:57;;;;;;;;;4.00;3.00;;;;;25.88;43.67;101161.53;5037406;28;45271;-44
2022/09/05 04:13:27;;;;;;;;;6.00;4.00;;;;;25.88;43.39;101153.56;5040779;28;45473;-46
2022/09/05 04:16:05;;;;;;;;;7.75;4.50;;;;;25.87;43.20;101155.34;5046310;28;46213;-46
2022/09/05 04:18:39;;;;;;;;;2.75;2.75;;;;;25.88;43.63;101159.72;5037970;28;45276;-42
2022/09/05 04:21:17;;;;;;;;;4.75;2.75;;;;;25.89;43.75;101149.94;5039824;28;45298;-44
2022/09/05 04:24:04;;;;;;;;;4.25;3.00;;;;;25.88;43.87;101151.75;5042712;28;45505;-41
2022/09/05 04:26:44;;;;;;;;;4.00;4.00;;;;;25.88;43.27;101154.41;5038440;28;47214;-43
2022/09/05 04:29:30;;;;;;;;;3.00;3.00;;;;;25.89;43.30;101148.13;5039922;28;45336;-41
2022/09/05 04:32:25;;;;;;;;;1.25;1.25;;;;;25.88;43.83;101143.78;5045986;28;45253;-41
2022/09/05 04:35:20;;;;;;;;;2.00;2.00;;;;;25.89;43.72;101147.28;5038645;28;45291;-45
2022/09/05 04:37:53;;;;;;;;;2.25;2.00;;;;;25.89;43.20;101144.63;5036915;28;47235;-49
2022/09/05 04:40:45;;;;;;;;;4.00;3.00;;;;;25.88;43.70;101146.44;5038261;28;45479;-45
2022/09/05 04:43:16;;;;;;;;;4.75;3.75;;;;;25.88;43.46;101156.22;5041771;28;45330;-43
2022/09/05 04:46:14;;;;;;;;;3.00;3.00;;;;;25.89;43.81;101163.22;5036864;28;45200;-42
2022/09/05 04:48:58;;;;;;;;;3.75;3.00;;;;;25.89;43.58;101173.84;5036115;28;47053;-52
2022/09/05 04:52:08;;;;;;;;;3.00;3.00;;;;;25.89;43.32;101177.34;5036660;28;45285;-47
2022/09/05 04:54:51;;;;;;;;;3.50;3.50;;;;;25.89;43.55;101182.66;5019508;28;45471;-50
2022/09/05 04:57:41;;;;;;;;;4.25;2.50;;;;;25.90;43.50;101188.81;5039813;28;45419;-45
2022/09/05 05:00:14;;;;;;;;;5.00;2.00;;;;;25.89;43.33;101182.66;5039575;28;46330;-41
2022/09/05 05:02:47;;;;;;;;;3.00;3.00;;;;;25.89;43.33;101174.69;5043342;28;45249;-43
2022/09/05 05:05:26;;;;;;;;;3.00;3.00;;;;;25.89;43.88;101177.34;5039202;28;45446;-41
2022/09/05 05:08:00;;;;;;;;;4.00;4.00;;;;;25.89;43.87;101182.66;5025772;28;45356;-44
2022/09/05 05:10:42;;;;;;;;;3.25;3.25;;;;;25.88;43.88;101175.63;5036381;28;45405;-42
2022/09/05 05:13:25;;;;;;;;;3.50;3.00;;;;;25.89;43.59;101174.69;5030247;28;45109;-55
2022/09/05 05:15:59;;;;;;;;;4.00;3.50;;;;;25.89;43.64;101177.34;5021501;28;45414;-45
2022/09/05 05:18:33;;;;;;;;;4.50;3.25;;;;;25.89;43.74;101172.03;5037088;28;44842;-47
2022/09/05 05:21:02;;;;;;;;;5.75;4.00;;;;;25.88;43.79;101175.63;5046685;28;46509;-47
2022/09/05 05:23:50;;;;;;;;;3.00;2.50;;;;;25.89;43.78;101176.50;5043224;28;45636;-42
2022/09/05 05:26:39;;;;;;;;;5.00;3.00;;;;;25.88;44.15;101180.94;5039229;28;45462;-43
2022/09/05 05:29:15;;;;;;;;;4.00;4.00;;;;;25.85;44.41;101173.19;5039490;28;45450;-45
2022/09/05 05:31:53;;;;;;;;;5.00;4.00;;;;;25.84;43.83;101168.00;5038914;28;46359;-42
2022/09/05 05:34:41;;;;;;;;;4.00;3.75;;;;;25.83;44.44;101175.16;5037091;28;45778;-45
2022/09/05 05:37:36;;;;;;;;;4.00;3.75;;;;;25.82;44.24;101184.06;5054531;28;45156;-48
2022/09/05 05:40:14;;;;;;;;;4.00;2.00;;;;;25.83;43.86;101183.09;5044987;28;45267;-43
2022/09/05 05:42:40;;;;;;;;;5.75;4.75;;;;;25.84;44.31;101186.59;5059419;28;45462;-43
2022/09/05 05:45:24;;;;;;;;;3.50;3.50;;;;;25.82;43.96;101184.06;5050590;28;45381;-46
2022/09/05 05:48:03;;;;;;;;;7.50;4.50;;;;;25.82;44.11;101181.41;5042380;28;45542;-44
2022/09/05 05:50:37;;;;;;;;;4.75;3.75;;;;;25.82;44.29;101194.69;5041833;28;45579;-42
2022/09/05 05:53:05;;;;;;;;;4.00;3.00;;;;;25.82;44.28;101193.81;5040257;28;46088;-43
2022/09/05 05:55:41;;;;;;;;;4.75;3.00;;;;;25.84;43.98;101206.06;5043633;28;45591;-43
2022/09/05 05:58:37;;;;;;;;;4.00;4.00;;;;;25.85;44.11;101202.41;5043805;28;45371;-41
2022/09/05 06:01:33;;;;;;;;;4.75;4.75;;;;;25.83;44.57;101214.97;5043227;28;45461;-41
2022/09/05 06:04:16;;;;;;;;;4.50;4.50;;;;;25.79;44.36;101213.50;5045510;28;47062;-42
2022/09/05 06:07:18;;;;;;;;;6.75;6.50;;;;;25.74;44.34;101221.78;5041393;28;45658;-42
2022/09/05 06:10:19;;;;;;;;;6.25;5.25;;;;;25.68;45.06;101219.59;5046785;28;45318;-48
2022/09/05 06:13:00;;;;;;;;;3.75;3.75;;;;;25.65;45.07;101222.44;5032435;28;44970;-45
2022/09/05 06:15:56;;;;;;;;;6.00;6.00;;;;;25.63;45.10;101234.97;5042119;28;45626;-42
2022/09/05 06:18:36;;;;;;;;;5.00;5.00;;;;;25.62;44.99;101227.97;5007045;28;45257;-41
2022/09/05 06:21:08;;;;;;;;;3.75;3.00;;;;;25.61;44.99;101236.88;5046367;28;45400;-45
2022/09/05 06:24:18;;;;;;;;;6.00;5.00;;;;;25.60;44.86;101245.81;5047313;28;45610;-41
2022/09/05 06:27:08;;;;;;;;;5.00;5.00;;;;;25.59;44.95;101246.75;5035055;28;46960;-45
2022/09/05 06:29:39;;;;;;;;;6.00;6.00;;;;;25.59;44.85;101239.66;5039486;28;45344;-41
2022/09/05 06:32:17;;;;;;;;;6.75;5.50;;;;;25.61;45.13;101252.81;5043945;28;45410;-47
2022/09/05 06:35:05;;;;;;;;;4.25;4.25;;;;;25.59;44.49;101255.59;5040980;28;45444;-48
2022/09/05 06:37:45;;;;;;;;;5.00;5.00;;;;;25.57;44.71;101270.75;5038899;28;46117;-42
2022/09/05 06:40:38;;;;;;;;;5.00;4.00;;;;;25.59;45.16;101284.78;5039733;28;45446;-41
2022/09/05 06:43:21;;;;;;;;;9.00;6.00;;;;;25.59;44.79;101271.50;5040181;28;45227;-44
2022/09/05 06:46:24;;;;;;;;;5.00;5.00;;;;;25.62;44.90;101284.56;5045203;28;45651;-42
2022/09/05 06:49:01;;;;;;;;;6.25;5.00;;;;;25.65;44.67;101295.91;5044925;28;46781;-46
2022/09/05 06:51:45;;;;;;;;;4.00;4.00;;;;;25.66;44.66;101305.56;5045322;28;45063;-44
2022/09/05 06:54:41;;;;;;;;;8.00;6.00;;;;;25.69;44.43;101315.97;5038218;28;45310;-46
2022/09/05 06:57:18;;;;;;;;;5.25;4.25;;;;;25.71;44.74;101322.03;5048703;28;45355;-45
2022/09/05 07:00:03;;;;;;;;;5.00;5.00;;;;;25.70;44.87;101330.97;5052451;28;46186;-42
2022/09/05 07:02:34;;;;;;;;;6.00;6.00;;;;;25.69;44.80;101329.25;5044715;28;45718;-44
2022/09/05 07:05:10;;;;;;;;;8.25;6.00;;;;;25.68;44.29;101317.81;5049285;28;45425;-41
2022/09/05 07:07:44;;;;;;;;;5.25;5.00;;;;;25.68;44.77;101312.50;5049072;28;45410;-42
2022/09/05 07:10:22;;;;;;;;;5.50;5.00;;;;;25.69;44.46;101318.63;5058991;28;47759;-44
2022/09/05 07:13:01;;;;;;;;;5.00;5.00;;;;;25.71;44.43;101327.34;5052318;28;45846;-47
2022/09/05 07:15:38;;;;;;;;;4.25;4.25;;;;;25.72;44.42;101331.72;5039085;28;45243;-44
2022/09/05 07:18:07;;;;;;;;;5.50;5.50;;;;;25.71;44.60;101322.88;5039218;28;45330;-43
2022/09/05 07:21:04;;;;;;;;;5.00;5.00;;;;;25.72;44.61;101327.22;5039291;28;46213;-43
2022/09/05 07:23:43;;;;;;;;;6.75;5.25;;;;;25.73;44.78;101330.75;5044062;28;45373;-43
2022/09/05 07:26:10;;;;;;;;;4.00;4.00;;;;;25.74;44.83;101327.16;5048207;28;45506;-47
2022/09/05 07:28:40;;;;;;;;;5.00;4.00;;;;;25.76;44.56;101327.84;5041799;28;45544;-53
2022/09/05 07:31:13;;;;;;;;;5.25;5.25;;;;;25.76;44.35;101320.75;5043138;28;46344;-53
2022/09/05 07:33:39;;;;;;;;;5.00;4.00;;;;;25.77;44.54;101322.47;5048198;28;45380;-45
2022/09/05 07:36:14;;;;;;;;;5.25;3.75;;;;;25.79;44.82;101314.38;5048675;28;45284;-50
2022/09/05 07:38:42;;;;;;;;;4.00;4.00;;;;;25.81;44.67;101320.44;5044723;28;45506;-41
2022/09/05 07:41:25;;;;;;;;;5.00;5.00;;;;;25.84;44.00;101324.66;5054346;28;46504;-42
2022/09/05 07:43:56;;;;;;;;;4.75;4.75;;;;;25.85;44.00;101327.22;5046547;28;45687;-41
2022/09/05 07:46:32;;;;;;;;;6.25;5.00;;;;;25.84;44.33;101314.91;5038881;28;45252;-48
2022/09/05 07:49:16;;;;;;;;;4.50;4.50;;;;;25.85;43.95;101316.59;5037938;28;45216;-43
2022/09/05 07:51:53;;;;;;;;;5.00;5.00;;;;;25.87;44.57;101309.38;5039913;28;46299;-47
2022/09/05 07:54:22;;;;;;;;;7.25;5.50;;;;;25.88;44.28;101308.41;5042264;28;45241;-47
2022/09/05 07:56:52;;;;;;;;;8.00;6.00;;;;;25.89;44.01;101307.47;5041942;28;45237;-45
2022/09/05 07:59:19;;;;;;;;;5.25;4.50;;;;;25.90;44.19;101306.50;5037313;28;45617;-44
2022/09/05 08:01:48;;;;;;;;;5.75;5.25;;;;;25.90;44.70;101295.88;5037088;28;46145;-44
2022/09/05 08:04:25;;;;;;;;;5.00;5.00;;;;;25.91;44.63;101292.25;5036967;28;45789;-44
2022/09/05 08:06:52;;;;;;;;;5.25;4.50;;;;;25.92;44.14;101291.31;5036954;28;45402;-45
2022/09/05 08:09:42;;;;;;;;;6.75;6.00;;;;;25.95;44.00;101282.28;5037061;28;45343;-46
2022/09/05 08:12:14;;;;;;;;;5.00;5.00;;;;;25.97;44.28;101285.66;5030474;28;45459;-48
2022/09/05 08:14:43;;;;;;;;;6.50;6.50;;;;;25.99;44.47;101282.88;5044929;28;45170;-42
2022/09/05 08:17:18;;;;;;;;;5.00;5.00;;;;;26.02;44.08;101282.69;5044326;28;45358;-45
2022/09/05 08:19:55;;;;;;;;;5.50;5.50;;;;;26.04;44.40;101286.06;5042360;28;45264;-46
2022/09/05 08:22:28;;;;;;;;;5.75;4.00;;;;;26.05;44.01;101280.66;5040832;28;46279;-44
2022/09/05 08:25:01;;;;;;;;;6.25;5.00;;;;;26.08;43.89;101285.75;5037620;28;45772;-41
2022/09/05 08:27:36;;;;;;;;;4.00;4.00;;;;;26.10;43.89;101276.84;5037190;28;45383;-44
2022/09/05 08:30:07;;;;;;;;;4.00;4.00;;;;;26.10;44.11;101282.16;5037115;28;45615;-44
2022/09/05 08:32:39;;;;;;;;;4.00;4.00;;;;;26.12;43.78;101283.75;5037308;28;46018;-41
